sensor_id;sensor_type;location;lat;lon;timestamp;P1;durP1;ratioP1;P2;durP2;ratioP2
23802;SDS011;12082;51.786;6.018;2023-03-23T00:01:11;43.10;;;40.67;;
23802;SDS011;12082;51.786;6.018;2023-03-23T00:03:44;43.73;;;41.13;;
23802;SDS011;12082;51.786;6.018;2023-03-23T00:06:10;44.10;;;41.47;;
23802;SDS011;12082;51.786;6.018;2023-03-23T00:08:41;40.03;;;37.87;;
23802;SDS011;12082;51.786;6.018;2023-03-23T00:11:15;39.83;;;37.47;;
23802;SDS011;12082;51.786;6.018;2023-03-23T00:13:43;44.63;;;42.10;;
23802;SDS011;12082;51.786;6.018;2023-03-23T00:16:10;41.87;;;39.43;;
23802;SDS011;12082;51.786;6.018;2023-03-23T00:18:44;43.30;;;41.00;;
23802;SDS011;12082;51.786;6.018;2023-03-23T00:21:10;43.50;;;40.90;;
23802;SDS011;12082;51.786;6.018;2023-03-23T00:23:36;41.37;;;38.97;;
23802;SDS011;12082;51.786;6.018;2023-03-23T00:26:03;41.00;;;38.80;;
23802;SDS011;12082;51.786;6.018;2023-03-23T00:28:29;40.43;;;38.03;;
23802;SDS011;12082;51.786;6.018;2023-03-23T00:30:59;39.17;;;36.73;;
23802;SDS011;12082;51.786;6.018;2023-03-23T00:33:26;36.70;;;34.37;;
23802;SDS011;12082;51.786;6.018;2023-03-23T00:35:53;34.70;;;32.50;;
23802;SDS011;12082;51.786;6.018;2023-03-23T00:38:19;36.00;;;33.83;;
23802;SDS011;12082;51.786;6.018;2023-03-23T00:40:45;38.00;;;35.80;;
23802;SDS011;12082;51.786;6.018;2023-03-23T00:43:13;38.53;;;36.33;;
23802;SDS011;12082;51.786;6.018;2023-03-23T00:45:39;38.87;;;36.67;;
23802;SDS011;12082;51.786;6.018;2023-03-23T00:48:05;40.47;;;38.00;;
23802;SDS011;12082;51.786;6.018;2023-03-23T00:50:31;40.50;;;38.13;;
23802;SDS011;12082;51.786;6.018;2023-03-23T00:52:57;38.47;;;36.27;;
23802;SDS011;12082;51.786;6.018;2023-03-23T00:55:24;36.23;;;34.33;;
23802;SDS011;12082;51.786;6.018;2023-03-23T00:57:50;38.47;;;36.33;;
23802;SDS011;12082;51.786;6.018;2023-03-23T01:00:16;38.70;;;36.70;;
23802;SDS011;12082;51.786;6.018;2023-03-23T01:02:43;40.93;;;38.63;;
23802;SDS011;12082;51.786;6.018;2023-03-23T01:05:10;39.37;;;37.13;;
23802;SDS011;12082;51.786;6.018;2023-03-23T01:07:36;39.10;;;37.00;;
23802;SDS011;12082;51.786;6.018;2023-03-23T01:10:03;37.33;;;35.23;;
23802;SDS011;12082;51.786;6.018;2023-03-23T01:12:29;37.30;;;34.80;;
23802;SDS011;12082;51.786;6.018;2023-03-23T01:14:55;34.97;;;32.90;;
23802;SDS011;12082;51.786;6.018;2023-03-23T01:17:21;34.63;;;32.57;;
23802;SDS011;12082;51.786;6.018;2023-03-23T01:19:47;34.33;;;31.87;;
23802;SDS011;12082;51.786;6.018;2023-03-23T01:22:13;32.30;;;30.13;;
23802;SDS011;12082;51.786;6.018;2023-03-23T01:24:39;35.53;;;33.27;;
23802;SDS011;12082;51.786;6.018;2023-03-23T01:27:06;34.70;;;32.47;;
23802;SDS011;12082;51.786;6.018;2023-03-23T01:29:35;36.53;;;34.43;;
23802;SDS011;12082;51.786;6.018;2023-03-23T01:32:01;38.10;;;35.80;;
23802;SDS011;12082;51.786;6.018;2023-03-23T01:34:27;39.47;;;37.17;;
23802;SDS011;12082;51.786;6.018;2023-03-23T01:36:53;45.10;;;42.10;;
23802;SDS011;12082;51.786;6.018;2023-03-23T01:39:19;43.80;;;41.23;;
23802;SDS011;12082;51.786;6.018;2023-03-23T01:41:46;44.60;;;42.10;;
23802;SDS011;12082;51.786;6.018;2023-03-23T01:46:44;42.10;;;39.90;;
23802;SDS011;12082;51.786;6.018;2023-03-23T01:49:15;39.20;;;36.80;;
23802;SDS011;12082;51.786;6.018;2023-03-23T01:51:43;36.13;;;34.07;;
23802;SDS011;12082;51.786;6.018;2023-03-23T01:54:11;38.23;;;36.13;;
23802;SDS011;12082;51.786;6.018;2023-03-23T01:56:39;41.47;;;39.27;;
23802;SDS011;12082;51.786;6.018;2023-03-23T01:59:07;43.67;;;41.07;;
23802;SDS011;12082;51.786;6.018;2023-03-23T02:01:35;43.00;;;40.57;;
23802;SDS011;12082;51.786;6.018;2023-03-23T02:04:04;44.67;;;42.23;;
23802;SDS011;12082;51.786;6.018;2023-03-23T02:06:30;44.53;;;42.17;;
23802;SDS011;12082;51.786;6.018;2023-03-23T02:08:57;45.53;;;42.93;;
23802;SDS011;12082;51.786;6.018;2023-03-23T02:11:23;43.33;;;40.43;;
23802;SDS011;12082;51.786;6.018;2023-03-23T02:13:49;43.00;;;40.50;;
23802;SDS011;12082;51.786;6.018;2023-03-23T02:17:03;44.00;;;41.20;;
23802;SDS011;12082;51.786;6.018;2023-03-23T02:24:23;43.37;;;41.17;;
23802;SDS011;12082;51.786;6.018;2023-03-23T02:27:01;44.07;;;41.63;;
23802;SDS011;12082;51.786;6.018;2023-03-23T02:32:10;44.03;;;41.43;;
23802;SDS011;12082;51.786;6.018;2023-03-23T02:34:41;43.50;;;41.03;;
23802;SDS011;12082;51.786;6.018;2023-03-23T02:37:09;41.03;;;38.73;;
23802;SDS011;12082;51.786;6.018;2023-03-23T02:39:43;39.30;;;37.20;;
23802;SDS011;12082;51.786;6.018;2023-03-23T02:42:11;38.50;;;36.27;;
23802;SDS011;12082;51.786;6.018;2023-03-23T02:44:38;37.00;;;34.90;;
23802;SDS011;12082;51.786;6.018;2023-03-23T02:47:07;42.07;;;39.77;;
23802;SDS011;12082;51.786;6.018;2023-03-23T02:49:34;43.50;;;41.20;;
23802;SDS011;12082;51.786;6.018;2023-03-23T02:52:05;42.03;;;39.30;;
23802;SDS011;12082;51.786;6.018;2023-03-23T02:54:32;39.67;;;37.53;;
23802;SDS011;12082;51.786;6.018;2023-03-23T02:56:59;34.80;;;32.57;;
23802;SDS011;12082;51.786;6.018;2023-03-23T02:59:26;28.80;;;27.20;;
23802;SDS011;12082;51.786;6.018;2023-03-23T03:02:12;26.53;;;24.87;;
23802;SDS011;12082;51.786;6.018;2023-03-23T03:04:38;26.47;;;24.77;;
23802;SDS011;12082;51.786;6.018;2023-03-23T03:09:50;25.67;;;24.03;;
23802;SDS011;12082;51.786;6.018;2023-03-23T03:15:09;27.57;;;25.87;;
23802;SDS011;12082;51.786;6.018;2023-03-23T03:17:39;26.20;;;24.57;;
23802;SDS011;12082;51.786;6.018;2023-03-23T03:20:08;25.17;;;23.67;;
23802;SDS011;12082;51.786;6.018;2023-03-23T03:22:36;25.23;;;23.83;;
23802;SDS011;12082;51.786;6.018;2023-03-23T03:25:03;25.80;;;24.30;;
23802;SDS011;12082;51.786;6.018;2023-03-23T03:27:30;25.33;;;23.83;;
23802;SDS011;12082;51.786;6.018;2023-03-23T03:29:57;25.40;;;23.90;;
23802;SDS011;12082;51.786;6.018;2023-03-23T03:32:25;25.57;;;24.03;;
23802;SDS011;12082;51.786;6.018;2023-03-23T03:34:56;24.87;;;23.47;;
23802;SDS011;12082;51.786;6.018;2023-03-23T03:37:22;25.93;;;24.60;;
23802;SDS011;12082;51.786;6.018;2023-03-23T03:39:48;25.00;;;23.43;;
23802;SDS011;12082;51.786;6.018;2023-03-23T03:42:14;25.13;;;23.53;;
23802;SDS011;12082;51.786;6.018;2023-03-23T03:44:40;25.63;;;23.90;;
23802;SDS011;12082;51.786;6.018;2023-03-23T03:47:06;25.83;;;24.33;;
23802;SDS011;12082;51.786;6.018;2023-03-23T03:49:31;25.80;;;24.20;;
23802;SDS011;12082;51.786;6.018;2023-03-23T03:51:57;26.63;;;25.00;;
23802;SDS011;12082;51.786;6.018;2023-03-23T03:54:24;26.67;;;24.97;;
23802;SDS011;12082;51.786;6.018;2023-03-23T03:56:50;27.70;;;26.03;;
23802;SDS011;12082;51.786;6.018;2023-03-23T03:59:16;27.63;;;26.13;;
23802;SDS011;12082;51.786;6.018;2023-03-23T04:01:42;28.30;;;26.70;;
23802;SDS011;12082;51.786;6.018;2023-03-23T04:04:08;27.50;;;25.70;;
23802;SDS011;12082;51.786;6.018;2023-03-23T04:06:34;28.87;;;27.27;;
23802;SDS011;12082;51.786;6.018;2023-03-23T04:09:04;28.67;;;26.97;;
23802;SDS011;12082;51.786;6.018;2023-03-23T04:11:33;27.90;;;26.20;;
23802;SDS011;12082;51.786;6.018;2023-03-23T04:13:59;28.77;;;27.07;;
23802;SDS011;12082;51.786;6.018;2023-03-23T04:16:25;28.10;;;26.57;;
23802;SDS011;12082;51.786;6.018;2023-03-23T04:18:54;30.67;;;28.97;;
23802;SDS011;12082;51.786;6.018;2023-03-23T04:21:21;29.60;;;27.83;;
23802;SDS011;12082;51.786;6.018;2023-03-23T04:23:47;28.40;;;26.57;;
23802;SDS011;12082;51.786;6.018;2023-03-23T04:26:13;29.40;;;27.40;;
23802;SDS011;12082;51.786;6.018;2023-03-23T04:28:39;27.57;;;26.07;;
23802;SDS011;12082;51.786;6.018;2023-03-23T04:31:05;28.80;;;27.07;;
23802;SDS011;12082;51.786;6.018;2023-03-23T04:33:31;27.70;;;26.17;;
23802;SDS011;12082;51.786;6.018;2023-03-23T04:35:59;27.17;;;25.50;;
23802;SDS011;12082;51.786;6.018;2023-03-23T04:38:26;27.50;;;25.80;;
23802;SDS011;12082;51.786;6.018;2023-03-23T04:40:52;26.53;;;24.83;;
23802;SDS011;12082;51.786;6.018;2023-03-23T04:43:19;27.00;;;25.30;;
23802;SDS011;12082;51.786;6.018;2023-03-23T04:45:46;28.97;;;26.97;;
23802;SDS011;12082;51.786;6.018;2023-03-23T04:48:12;24.57;;;22.83;;
23802;SDS011;12082;51.786;6.018;2023-03-23T04:50:39;23.70;;;21.97;;
23802;SDS011;12082;51.786;6.018;2023-03-23T04:53:05;22.73;;;21.33;;
23802;SDS011;12082;51.786;6.018;2023-03-23T04:55:31;23.83;;;22.23;;
23802;SDS011;12082;51.786;6.018;2023-03-23T04:58:01;23.77;;;22.20;;
23802;SDS011;12082;51.786;6.018;2023-03-23T05:00:27;23.40;;;21.70;;
23802;SDS011;12082;51.786;6.018;2023-03-23T05:02:53;20.90;;;19.40;;
23802;SDS011;12082;51.786;6.018;2023-03-23T05:05:20;22.13;;;20.37;;
23802;SDS011;12082;51.786;6.018;2023-03-23T05:07:47;21.03;;;19.60;;
23802;SDS011;12082;51.786;6.018;2023-03-23T05:10:14;22.23;;;20.70;;
23802;SDS011;12082;51.786;6.018;2023-03-23T05:12:40;23.10;;;21.50;;
23802;SDS011;12082;51.786;6.018;2023-03-23T05:15:07;21.80;;;20.30;;
23802;SDS011;12082;51.786;6.018;2023-03-23T05:17:33;22.40;;;20.80;;
23802;SDS011;12082;51.786;6.018;2023-03-23T05:20:00;22.30;;;20.83;;
23802;SDS011;12082;51.786;6.018;2023-03-23T05:22:27;23.07;;;21.13;;
23802;SDS011;12082;51.786;6.018;2023-03-23T05:24:53;22.63;;;21.00;;
23802;SDS011;12082;51.786;6.018;2023-03-23T05:27:19;21.37;;;19.90;;
23802;SDS011;12082;51.786;6.018;2023-03-23T05:29:45;21.33;;;19.53;;
23802;SDS011;12082;51.786;6.018;2023-03-23T05:32:13;21.73;;;20.33;;
23802;SDS011;12082;51.786;6.018;2023-03-23T05:34:39;20.93;;;19.70;;
23802;SDS011;12082;51.786;6.018;2023-03-23T05:37:06;22.33;;;20.53;;
23802;SDS011;12082;51.786;6.018;2023-03-23T05:39:32;22.57;;;20.93;;
23802;SDS011;12082;51.786;6.018;2023-03-23T05:41:59;21.90;;;20.57;;
23802;SDS011;12082;51.786;6.018;2023-03-23T05:44:25;21.30;;;19.30;;
23802;SDS011;12082;51.786;6.018;2023-03-23T05:46:51;21.67;;;20.27;;
23802;SDS011;12082;51.786;6.018;2023-03-23T05:49:17;22.30;;;20.53;;
23802;SDS011;12082;51.786;6.018;2023-03-23T05:51:44;19.73;;;18.33;;
23802;SDS011;12082;51.786;6.018;2023-03-23T05:54:11;22.33;;;20.30;;
23802;SDS011;12082;51.786;6.018;2023-03-23T05:56:37;20.70;;;19.00;;
23802;SDS011;12082;51.786;6.018;2023-03-23T05:59:03;22.17;;;20.33;;
23802;SDS011;12082;51.786;6.018;2023-03-23T06:01:29;19.03;;;17.43;;
23802;SDS011;12082;51.786;6.018;2023-03-23T06:03:56;20.00;;;18.00;;
23802;SDS011;12082;51.786;6.018;2023-03-23T06:06:23;17.93;;;16.47;;
23802;SDS011;12082;51.786;6.018;2023-03-23T06:08:49;18.00;;;16.70;;
23802;SDS011;12082;51.786;6.018;2023-03-23T06:11:16;24.17;;;17.90;;
23802;SDS011;12082;51.786;6.018;2023-03-23T06:13:42;18.97;;;17.13;;
23802;SDS011;12082;51.786;6.018;2023-03-23T06:16:09;18.23;;;16.93;;
23802;SDS011;12082;51.786;6.018;2023-03-23T06:18:35;19.70;;;18.03;;
23802;SDS011;12082;51.786;6.018;2023-03-23T06:21:02;19.63;;;17.90;;
23802;SDS011;12082;51.786;6.018;2023-03-23T06:23:28;19.83;;;18.50;;
23802;SDS011;12082;51.786;6.018;2023-03-23T06:25:56;21.60;;;19.73;;
23802;SDS011;12082;51.786;6.018;2023-03-23T06:28:23;22.07;;;20.67;;
23802;SDS011;12082;51.786;6.018;2023-03-23T06:30:50;23.70;;;22.10;;
23802;SDS011;12082;51.786;6.018;2023-03-23T06:33:16;24.23;;;22.83;;
23802;SDS011;12082;51.786;6.018;2023-03-23T06:35:42;22.27;;;20.87;;
23802;SDS011;12082;51.786;6.018;2023-03-23T06:38:09;22.57;;;21.30;;
23802;SDS011;12082;51.786;6.018;2023-03-23T06:40:35;21.13;;;19.60;;
23802;SDS011;12082;51.786;6.018;2023-03-23T06:43:01;22.20;;;20.33;;
23802;SDS011;12082;51.786;6.018;2023-03-23T06:45:28;21.67;;;20.37;;
23802;SDS011;12082;51.786;6.018;2023-03-23T06:47:54;21.90;;;20.20;;
23802;SDS011;12082;51.786;6.018;2023-03-23T06:50:20;20.43;;;19.23;;
23802;SDS011;12082;51.786;6.018;2023-03-23T06:52:46;22.47;;;20.70;;
23802;SDS011;12082;51.786;6.018;2023-03-23T06:55:13;22.40;;;20.80;;
23802;SDS011;12082;51.786;6.018;2023-03-23T06:57:39;22.33;;;20.57;;
23802;SDS011;12082;51.786;6.018;2023-03-23T07:00:06;23.57;;;21.60;;
23802;SDS011;12082;51.786;6.018;2023-03-23T07:02:41;22.97;;;21.67;;
23802;SDS011;12082;51.786;6.018;2023-03-23T07:05:08;22.60;;;20.80;;
23802;SDS011;12082;51.786;6.018;2023-03-23T07:07:35;23.17;;;21.30;;
23802;SDS011;12082;51.786;6.018;2023-03-23T07:10:01;24.73;;;22.53;;
23802;SDS011;12082;51.786;6.018;2023-03-23T07:12:27;25.20;;;23.03;;
23802;SDS011;12082;51.786;6.018;2023-03-23T07:14:53;26.53;;;24.73;;
23802;SDS011;12082;51.786;6.018;2023-03-23T07:17:20;30.57;;;28.23;;
23802;SDS011;12082;51.786;6.018;2023-03-23T07:19:46;31.00;;;28.73;;
23802;SDS011;12082;51.786;6.018;2023-03-23T07:22:12;32.00;;;29.87;;
23802;SDS011;12082;51.786;6.018;2023-03-23T07:24:38;30.63;;;28.60;;
23802;SDS011;12082;51.786;6.018;2023-03-23T07:27:04;32.60;;;30.40;;
23802;SDS011;12082;51.786;6.018;2023-03-23T07:29:30;31.40;;;29.23;;
23802;SDS011;12082;51.786;6.018;2023-03-23T07:31:59;30.27;;;28.23;;
23802;SDS011;12082;51.786;6.018;2023-03-23T07:34:26;29.00;;;27.00;;
23802;SDS011;12082;51.786;6.018;2023-03-23T07:36:52;28.90;;;26.57;;
23802;SDS011;12082;51.786;6.018;2023-03-23T07:39:19;28.60;;;26.27;;
23802;SDS011;12082;51.786;6.018;2023-03-23T07:41:45;29.67;;;27.40;;
23802;SDS011;12082;51.786;6.018;2023-03-23T07:44:10;32.33;;;29.83;;
23802;SDS011;12082;51.786;6.018;2023-03-23T07:46:36;34.27;;;32.20;;
23802;SDS011;12082;51.786;6.018;2023-03-23T07:49:03;41.10;;;38.53;;
23802;SDS011;12082;51.786;6.018;2023-03-23T07:51:30;43.27;;;40.50;;
23802;SDS011;12082;51.786;6.018;2023-03-23T07:53:56;46.67;;;43.33;;
23802;SDS011;12082;51.786;6.018;2023-03-23T07:56:23;44.23;;;41.83;;
23802;SDS011;12082;51.786;6.018;2023-03-23T07:58:49;45.53;;;42.93;;
23802;SDS011;12082;51.786;6.018;2023-03-23T08:01:16;45.60;;;42.37;;
23802;SDS011;12082;51.786;6.018;2023-03-23T08:03:43;46.93;;;44.30;;
23802;SDS011;12082;51.786;6.018;2023-03-23T08:06:09;46.93;;;43.63;;
23802;SDS011;12082;51.786;6.018;2023-03-23T08:08:35;49.27;;;46.43;;
23802;SDS011;12082;51.786;6.018;2023-03-23T08:11:02;50.73;;;47.27;;
23802;SDS011;12082;51.786;6.018;2023-03-23T08:13:28;49.07;;;46.13;;
23802;SDS011;12082;51.786;6.018;2023-03-23T08:15:54;50.30;;;47.07;;
23802;SDS011;12082;51.786;6.018;2023-03-23T08:18:21;46.20;;;43.70;;
23802;SDS011;12082;51.786;6.018;2023-03-23T08:20:47;42.97;;;40.50;;
23802;SDS011;12082;51.786;6.018;2023-03-23T08:23:14;30.73;;;29.00;;
23802;SDS011;12082;51.786;6.018;2023-03-23T08:25:40;28.23;;;26.73;;
23802;SDS011;12082;51.786;6.018;2023-03-23T08:28:07;31.63;;;29.57;;
23802;SDS011;12082;51.786;6.018;2023-03-23T08:30:34;32.43;;;30.83;;
23802;SDS011;12082;51.786;6.018;2023-03-23T08:33:03;31.20;;;29.57;;
23802;SDS011;12082;51.786;6.018;2023-03-23T08:35:30;25.13;;;23.93;;
23802;SDS011;12082;51.786;6.018;2023-03-23T08:37:56;24.40;;;23.20;;
23802;SDS011;12082;51.786;6.018;2023-03-23T08:40:22;24.00;;;22.70;;
23802;SDS011;12082;51.786;6.018;2023-03-23T08:42:49;24.77;;;23.53;;
23802;SDS011;12082;51.786;6.018;2023-03-23T08:45:16;24.73;;;23.30;;
23802;SDS011;12082;51.786;6.018;2023-03-23T08:47:43;22.90;;;21.90;;
23802;SDS011;12082;51.786;6.018;2023-03-23T08:50:12;23.70;;;22.50;;
23802;SDS011;12082;51.786;6.018;2023-03-23T08:52:38;23.43;;;22.27;;
23802;SDS011;12082;51.786;6.018;2023-03-23T08:55:05;22.77;;;21.47;;
23802;SDS011;12082;51.786;6.018;2023-03-23T08:57:33;23.23;;;22.13;;
23802;SDS011;12082;51.786;6.018;2023-03-23T09:00:00;22.90;;;21.80;;
23802;SDS011;12082;51.786;6.018;2023-03-23T09:02:40;23.20;;;22.10;;
23802;SDS011;12082;51.786;6.018;2023-03-23T09:05:07;23.93;;;22.63;;
23802;SDS011;12082;51.786;6.018;2023-03-23T09:07:34;24.50;;;23.30;;
23802;SDS011;12082;51.786;6.018;2023-03-23T09:10:00;24.37;;;22.87;;
23802;SDS011;12082;51.786;6.018;2023-03-23T09:12:27;24.20;;;23.10;;
23802;SDS011;12082;51.786;6.018;2023-03-23T09:14:54;24.23;;;22.87;;
23802;SDS011;12082;51.786;6.018;2023-03-23T09:17:20;24.20;;;22.80;;
23802;SDS011;12082;51.786;6.018;2023-03-23T09:19:46;24.93;;;23.20;;
23802;SDS011;12082;51.786;6.018;2023-03-23T09:22:12;23.77;;;22.50;;
23802;SDS011;12082;51.786;6.018;2023-03-23T09:24:40;23.93;;;22.53;;
23802;SDS011;12082;51.786;6.018;2023-03-23T09:27:06;23.63;;;22.33;;
23802;SDS011;12082;51.786;6.018;2023-03-23T09:29:32;25.53;;;23.87;;
23802;SDS011;12082;51.786;6.018;2023-03-23T09:31:58;23.63;;;22.17;;
23802;SDS011;12082;51.786;6.018;2023-03-23T09:34:25;22.83;;;21.43;;
23802;SDS011;12082;51.786;6.018;2023-03-23T09:36:51;25.33;;;23.40;;
23802;SDS011;12082;51.786;6.018;2023-03-23T09:39:17;24.43;;;23.17;;
23802;SDS011;12082;51.786;6.018;2023-03-23T09:46:48;20.77;;;19.10;;
23802;SDS011;12082;51.786;6.018;2023-03-23T09:49:26;21.20;;;19.63;;
23802;SDS011;12082;51.786;6.018;2023-03-23T09:51:54;20.87;;;19.27;;
23802;SDS011;12082;51.786;6.018;2023-03-23T09:54:27;20.43;;;18.93;;
23802;SDS011;12082;51.786;6.018;2023-03-23T09:56:54;20.00;;;18.67;;
23802;SDS011;12082;51.786;6.018;2023-03-23T10:01:48;19.10;;;17.47;;
23802;SDS011;12082;51.786;6.018;2023-03-23T10:04:24;17.13;;;16.00;;
23802;SDS011;12082;51.786;6.018;2023-03-23T10:06:51;17.20;;;15.97;;
23802;SDS011;12082;51.786;6.018;2023-03-23T10:09:18;17.00;;;15.70;;
23802;SDS011;12082;51.786;6.018;2023-03-23T10:11:50;17.27;;;15.90;;
23802;SDS011;12082;51.786;6.018;2023-03-23T10:14:26;16.30;;;15.20;;
23802;SDS011;12082;51.786;6.018;2023-03-23T10:17:13;16.10;;;15.10;;
23802;SDS011;12082;51.786;6.018;2023-03-23T10:19:54;18.50;;;16.83;;
23802;SDS011;12082;51.786;6.018;2023-03-23T10:22:23;17.40;;;16.40;;
23802;SDS011;12082;51.786;6.018;2023-03-23T10:24:52;16.90;;;15.90;;
23802;SDS011;12082;51.786;6.018;2023-03-23T10:29:55;18.03;;;16.97;;
23802;SDS011;12082;51.786;6.018;2023-03-23T10:32:36;17.90;;;16.33;;
23802;SDS011;12082;51.786;6.018;2023-03-23T10:35:05;17.57;;;16.50;;
23802;SDS011;12082;51.786;6.018;2023-03-23T10:37:32;17.20;;;15.97;;
23802;SDS011;12082;51.786;6.018;2023-03-23T10:40:01;16.37;;;15.17;;
23802;SDS011;12082;51.786;6.018;2023-03-23T10:44:55;15.87;;;14.60;;
23802;SDS011;12082;51.786;6.018;2023-03-23T10:47:22;18.40;;;16.73;;
23802;SDS011;12082;51.786;6.018;2023-03-23T10:49:49;17.50;;;16.07;;
23802;SDS011;12082;51.786;6.018;2023-03-23T10:54:56;16.87;;;15.43;;
23802;SDS011;12082;51.786;6.018;2023-03-23T10:57:24;18.63;;;17.10;;
23802;SDS011;12082;51.786;6.018;2023-03-23T10:59:50;17.93;;;16.93;;
23802;SDS011;12082;51.786;6.018;2023-03-23T11:02:17;17.43;;;16.27;;
23802;SDS011;12082;51.786;6.018;2023-03-23T11:04:54;17.93;;;16.40;;
23802;SDS011;12082;51.786;6.018;2023-03-23T11:07:24;19.27;;;17.60;;
23802;SDS011;12082;51.786;6.018;2023-03-23T11:09:53;18.77;;;17.43;;
23802;SDS011;12082;51.786;6.018;2023-03-23T11:12:19;17.77;;;16.63;;
23802;SDS011;12082;51.786;6.018;2023-03-23T11:14:47;19.57;;;17.97;;
23802;SDS011;12082;51.786;6.018;2023-03-23T11:17:23;18.37;;;16.90;;
23802;SDS011;12082;51.786;6.018;2023-03-23T11:19:49;17.83;;;16.63;;
23802;SDS011;12082;51.786;6.018;2023-03-23T11:22:26;18.57;;;17.13;;
23802;SDS011;12082;51.786;6.018;2023-03-23T11:24:53;18.93;;;17.47;;
23802;SDS011;12082;51.786;6.018;2023-03-23T11:27:19;19.70;;;18.20;;
23802;SDS011;12082;51.786;6.018;2023-03-23T11:32:32;19.50;;;18.17;;
23802;SDS011;12082;51.786;6.018;2023-03-23T11:34:59;18.83;;;17.50;;
23802;SDS011;12082;51.786;6.018;2023-03-23T11:39:55;19.70;;;18.43;;
23802;SDS011;12082;51.786;6.018;2023-03-23T11:42:24;19.07;;;17.73;;
23802;SDS011;12082;51.786;6.018;2023-03-23T11:44:54;19.00;;;17.63;;
23802;SDS011;12082;51.786;6.018;2023-03-23T11:47:36;18.47;;;17.20;;
23802;SDS011;12082;51.786;6.018;2023-03-23T11:50:10;19.80;;;18.20;;
23802;SDS011;12082;51.786;6.018;2023-03-23T11:55:27;20.07;;;18.50;;
23802;SDS011;12082;51.786;6.018;2023-03-23T11:57:55;19.30;;;17.90;;
23802;SDS011;12082;51.786;6.018;2023-03-23T12:00:21;18.93;;;17.60;;
23802;SDS011;12082;51.786;6.018;2023-03-23T12:10:44;20.07;;;18.60;;
23802;SDS011;12082;51.786;6.018;2023-03-23T12:13:20;20.10;;;18.50;;
23802;SDS011;12082;51.786;6.018;2023-03-23T12:15:57;19.77;;;18.67;;
23802;SDS011;12082;51.786;6.018;2023-03-23T12:26:23;18.90;;;17.07;;
23802;SDS011;12082;51.786;6.018;2023-03-23T12:31:52;18.77;;;17.40;;
23802;SDS011;12082;51.786;6.018;2023-03-23T12:34:40;18.33;;;17.03;;
23802;SDS011;12082;51.786;6.018;2023-03-23T12:37:19;17.67;;;16.50;;
23802;SDS011;12082;51.786;6.018;2023-03-23T12:45:27;20.13;;;18.70;;
23802;SDS011;12082;51.786;6.018;2023-03-23T12:55:21;20.43;;;19.30;;
23802;SDS011;12082;51.786;6.018;2023-03-23T12:58:08;19.90;;;18.47;;
23802;SDS011;12082;51.786;6.018;2023-03-23T13:03:13;19.00;;;17.90;;
23802;SDS011;12082;51.786;6.018;2023-03-23T13:05:41;19.83;;;18.63;;
23802;SDS011;12082;51.786;6.018;2023-03-23T13:08:17;19.90;;;18.73;;
23802;SDS011;12082;51.786;6.018;2023-03-23T13:10:48;20.03;;;18.60;;
23802;SDS011;12082;51.786;6.018;2023-03-23T13:13:49;20.80;;;19.23;;
23802;SDS011;12082;51.786;6.018;2023-03-23T13:16:10;21.40;;;19.80;;
23802;SDS011;12082;51.786;6.018;2023-03-23T13:18:57;22.03;;;20.53;;
23802;SDS011;12082;51.786;6.018;2023-03-23T13:23:56;23.80;;;21.97;;
23802;SDS011;12082;51.786;6.018;2023-03-23T13:26:23;23.27;;;21.80;;
23802;SDS011;12082;51.786;6.018;2023-03-23T13:31:19;23.93;;;22.33;;
23802;SDS011;12082;51.786;6.018;2023-03-23T13:33:52;23.07;;;21.60;;
23802;SDS011;12082;51.786;6.018;2023-03-23T13:36:40;22.67;;;20.97;;
23802;SDS011;12082;51.786;6.018;2023-03-23T13:39:06;20.27;;;18.67;;
23802;SDS011;12082;51.786;6.018;2023-03-23T13:41:33;18.43;;;17.20;;
23802;SDS011;12082;51.786;6.018;2023-03-23T13:44:16;18.00;;;16.70;;
23802;SDS011;12082;51.786;6.018;2023-03-23T13:46:53;18.57;;;17.27;;
23802;SDS011;12082;51.786;6.018;2023-03-23T13:49:20;19.20;;;17.80;;
23802;SDS011;12082;51.786;6.018;2023-03-23T13:54:19;20.07;;;18.77;;
23802;SDS011;12082;51.786;6.018;2023-03-23T14:01:53;20.80;;;19.67;;
23802;SDS011;12082;51.786;6.018;2023-03-23T14:04:20;21.83;;;20.30;;
23802;SDS011;12082;51.786;6.018;2023-03-23T14:06:47;22.93;;;21.00;;
23802;SDS011;12082;51.786;6.018;2023-03-23T14:09:19;21.50;;;19.83;;
23802;SDS011;12082;51.786;6.018;2023-03-23T14:11:54;21.30;;;19.70;;
23802;SDS011;12082;51.786;6.018;2023-03-23T14:14:23;22.10;;;20.60;;
23802;SDS011;12082;51.786;6.018;2023-03-23T14:16:51;22.60;;;20.60;;
23802;SDS011;12082;51.786;6.018;2023-03-23T14:21:49;23.00;;;21.20;;
23802;SDS011;12082;51.786;6.018;2023-03-23T14:24:16;22.53;;;19.73;;
23802;SDS011;12082;51.786;6.018;2023-03-23T14:26:43;19.13;;;17.43;;
23802;SDS011;12082;51.786;6.018;2023-03-23T14:29:11;20.57;;;19.13;;
23802;SDS011;12082;51.786;6.018;2023-03-23T14:31:37;26.23;;;24.53;;
23802;SDS011;12082;51.786;6.018;2023-03-23T14:34:04;25.77;;;24.00;;
23802;SDS011;12082;51.786;6.018;2023-03-23T14:36:33;23.17;;;21.47;;
23802;SDS011;12082;51.786;6.018;2023-03-23T14:39:03;33.87;;;31.90;;
23802;SDS011;12082;51.786;6.018;2023-03-23T14:41:31;31.37;;;29.33;;
23802;SDS011;12082;51.786;6.018;2023-03-23T14:43:59;33.80;;;31.53;;
23802;SDS011;12082;51.786;6.018;2023-03-23T14:46:25;35.70;;;33.03;;
23802;SDS011;12082;51.786;6.018;2023-03-23T14:48:52;36.67;;;34.03;;
23802;SDS011;12082;51.786;6.018;2023-03-23T14:51:18;40.30;;;36.87;;
23802;SDS011;12082;51.786;6.018;2023-03-23T14:53:45;36.70;;;33.83;;
23802;SDS011;12082;51.786;6.018;2023-03-23T14:56:14;38.17;;;35.43;;
23802;SDS011;12082;51.786;6.018;2023-03-23T14:58:47;31.97;;;29.50;;
23802;SDS011;12082;51.786;6.018;2023-03-23T15:01:16;32.03;;;29.33;;
23802;SDS011;12082;51.786;6.018;2023-03-23T15:03:46;31.07;;;28.30;;
23802;SDS011;12082;51.786;6.018;2023-03-23T15:06:14;35.60;;;33.13;;
23802;SDS011;12082;51.786;6.018;2023-03-23T15:08:41;36.97;;;34.53;;
23802;SDS011;12082;51.786;6.018;2023-03-23T15:11:08;30.03;;;28.23;;
23802;SDS011;12082;51.786;6.018;2023-03-23T15:13:37;22.10;;;20.80;;
23802;SDS011;12082;51.786;6.018;2023-03-23T15:16:11;19.97;;;18.57;;
23802;SDS011;12082;51.786;6.018;2023-03-23T15:18:38;19.53;;;18.00;;
23802;SDS011;12082;51.786;6.018;2023-03-23T15:21:09;20.27;;;18.80;;
23802;SDS011;12082;51.786;6.018;2023-03-23T15:23:40;18.50;;;17.30;;
23802;SDS011;12082;51.786;6.018;2023-03-23T15:26:09;18.07;;;16.77;;
23802;SDS011;12082;51.786;6.018;2023-03-23T15:28:41;18.63;;;17.20;;
23802;SDS011;12082;51.786;6.018;2023-03-23T15:31:07;19.10;;;17.90;;
23802;SDS011;12082;51.786;6.018;2023-03-23T15:33:33;19.53;;;17.97;;
23802;SDS011;12082;51.786;6.018;2023-03-23T15:36:04;16.03;;;15.03;;
23802;SDS011;12082;51.786;6.018;2023-03-23T15:38:31;17.07;;;15.50;;
23802;SDS011;12082;51.786;6.018;2023-03-23T15:40:59;16.13;;;14.70;;
23802;SDS011;12082;51.786;6.018;2023-03-23T15:43:35;18.67;;;16.93;;
23802;SDS011;12082;51.786;6.018;2023-03-23T15:46:03;17.77;;;16.17;;
23802;SDS011;12082;51.786;6.018;2023-03-23T15:48:31;18.83;;;17.30;;
23802;SDS011;12082;51.786;6.018;2023-03-23T15:50:57;21.83;;;20.33;;
23802;SDS011;12082;51.786;6.018;2023-03-23T15:53:34;24.23;;;22.47;;
23802;SDS011;12082;51.786;6.018;2023-03-23T15:56:04;25.70;;;23.60;;